Time;durP1;ratioP1;P1;durP2;ratioP2;P2;SDS_P1;SDS_P2;PMS_P1;PMS_P2;Temp;Humidity;BMP_temperature;BMP_pressure;BME280_temperature;BME280_humidity;BME280_pressure;Samples;Min_cycle;Max_cycle;Signal;HPM_P1;HPM_P2
2023/03/03 00:02:32;;;;;;;;;;;;;;;;;;4980814;28;19968;-96
2023/03/03 00:05:04;;;;;;;;;;;;;;;;;;4996793;28;19928;-95
2023/03/03 00:07:37;;;;;;;;;;;;;;;;;;4981214;28;19922;-96
2023/03/03 00:10:11;;;;;;;;;;;;;;;;;;4982302;28;19929;-95
2023/03/03 00:12:46;;;;;;;;;;;;;;;;;;4981688;28;19926;-96
2023/03/03 00:15:12;;;;;;;;;;;;;;;;;;4983070;28;20317;-96
2023/03/03 00:17:38;;;;;;;;;;;;;;;;;;4984417;28;20036;-95
2023/03/03 00:20:04;;;;;;;;;;;;;;;;;;4984878;28;20354;-95
2023/03/03 00:22:30;;;;;;;;;;;;;;;;;;4984717;28;19922;-96
2023/03/03 00:24:56;;;;;;;;;;;;;;;;;;4983876;28;19928;-95
2023/03/03 00:27:22;;;;;;;;;;;;;;;;;;4984201;28;20401;-96
2023/03/03 00:29:49;;;;;;;;;;;;;;;;;;4984082;28;19922;-95
2023/03/03 00:32:15;;;;;;;;;;;;;;;;;;4983952;28;20392;-95
2023/03/03 00:34:41;;;;;;;;;;;;;;;;;;4983645;28;19925;-95
2023/03/03 00:37:08;;;;;;;;;;;;;;;;;;4984248;28;19925;-94
2023/03/03 00:39:34;;;;;;;;;;;;;;;;;;4984006;28;20332;-95
2023/03/03 00:42:03;;;;;;;;;;;;;;;;;;4983731;28;19925;-95
2023/03/03 00:44:29;;;;;;;;;;;;;;;;;;5000437;28;20000;-94
2023/03/03 00:46:55;;;;;;;;;;;;;;;;;;4983797;28;19925;-93
2023/03/03 00:49:23;;;;;;;;;;;;;;;;;;4983619;28;19922;-94
2023/03/03 00:51:52;;;;;;;;;;;;;;;;;;4983501;28;19925;-95
2023/03/03 00:54:18;;;;;;;;;;;;;;;;;;4983493;28;19995;-95
2023/03/03 00:56:47;;;;;;;;;;;;;;;;;;4983756;28;19922;-93
2023/03/03 00:59:16;;;;;;;;;;;;;;;;;;4983380;28;20282;-92
2023/03/03 01:01:42;;;;;;;;;;;;;;;;;;4983728;28;19925;-94
2023/03/03 01:04:08;;;;;;;;;;;;;;;;;;4983963;28;19923;-94
2023/03/03 01:06:34;;;;;;;;;;;;;;;;;;4983759;28;19925;-94
2023/03/03 01:09:00;;;;;;;;;;;;;;;;;;5001833;28;19921;-95
2023/03/03 01:11:27;;;;;;;;;;;;;;;;;;4984170;28;19932;-94
2023/03/03 01:13:53;;;;;;;;;;;;;;;;;;5000197;28;19932;-95
2023/03/03 01:16:19;;;;;;;;;;;;;;;;;;4984206;28;19921;-95
2023/03/03 01:18:45;;;;;;;;;;;;;;;;;;4999561;28;19979;-95
2023/03/03 01:21:11;;;;;;;;;;;;;;;;;;4983144;28;19922;-95
2023/03/03 01:23:40;;;;;;;;;;;;;;;;;;4983567;28;19921;-95
2023/03/03 01:26:06;;;;;;;;;;;;;;;;;;4983203;28;19948;-95
2023/03/03 01:28:35;;;;;;;;;;;;;;;;;;4982556;28;20019;-95
2023/03/03 01:31:01;;;;;;;;;;;;;;;;;;4983223;28;19988;-95
2023/03/03 01:33:27;;;;;;;;;;;;;;;;;;4983359;28;19944;-96
2023/03/03 01:35:53;;;;;;;;;;;;;;;;;;4983477;28;19922;-96
2023/03/03 01:38:24;;;;;;;;;;;;;;;;;;4983552;28;20278;-96
2023/03/03 01:40:58;;;;;;;;;;;;;;;;;;4999405;28;20341;-96
2023/03/03 01:43:24;;;;;;;;;;;;;;;;;;4983414;28;19921;-95
2023/03/03 01:45:52;;;;;;;;;;;;;;;;;;4982798;28;19928;-96
2023/03/03 01:48:18;;;;;;;;;;;;;;;;;;4999095;28;19925;-94
2023/03/03 01:50:44;;;;;;;;;;;;;;;;;;4982435;28;19976;-95
2023/03/03 01:53:10;;;;;;;;;;;;;;;;;;4982792;28;19928;-94
2023/03/03 01:55:36;;;;;;;;;;;;;;;;;;4998136;28;19921;-94
2023/03/03 01:58:02;;;;;;;;;;;;;;;;;;4982482;28;19985;-94
2023/03/03 02:00:31;;;;;;;;;;;;;;;;;;4998913;28;19921;-94
2023/03/03 02:02:57;;;;;;;;;;;;;;;;;;4982164;28;19922;-95
2023/03/03 02:05:26;;;;;;;;;;;;;;;;;;4982185;28;20457;-95
2023/03/03 02:07:55;;;;;;;;;;;;;;;;;;4982526;28;19925;-95
2023/03/03 02:10:21;;;;;;;;;;;;;;;;;;4982679;28;19944;-96
2023/03/03 02:12:47;;;;;;;;;;;;;;;;;;4982200;28;19925;-94
2023/03/03 02:15:13;;;;;;;;;;;;;;;;;;4982165;28;19921;-95
2023/03/03 02:17:41;;;;;;;;;;;;;;;;;;4982443;28;19929;-95
2023/03/03 02:20:10;;;;;;;;;;;;;;;;;;4982802;28;19921;-96
2023/03/03 02:22:36;;;;;;;;;;;;;;;;;;4982673;28;19921;-96
2023/03/03 02:25:02;;;;;;;;;;;;;;;;;;4982712;28;19921;-95
2023/03/03 02:27:31;;;;;;;;;;;;;;;;;;4983268;28;20001;-95
2023/03/03 02:29:57;;;;;;;;;;;;;;;;;;4982608;28;19921;-96
2023/03/03 02:32:28;;;;;;;;;;;;;;;;;;4998537;28;20023;-96
2023/03/03 02:34:54;;;;;;;;;;;;;;;;;;4998608;28;19925;-96
2023/03/03 02:37:23;;;;;;;;;;;;;;;;;;4998590;28;19922;-96
2023/03/03 02:39:48;;;;;;;;;;;;;;;;;;4983114;28;19998;-96
2023/03/03 02:42:14;;;;;;;;;;;;;;;;;;4999921;28;19980;-93
2023/03/03 02:44:43;;;;;;;;;;;;;;;;;;5020033;28;19940;-94
2023/03/03 02:47:09;;;;;;;;;;;;;;;;;;4990062;28;19921;-96
2023/03/03 02:49:38;;;;;;;;;;;;;;;;;;4978756;28;19921;-95
2023/03/03 02:52:04;;;;;;;;;;;;;;;;;;4981706;28;20390;-94
2023/03/03 02:54:33;;;;;;;;;;;;;;;;;;4981685;28;20291;-94
2023/03/03 02:56:58;;;;;;;;;;;;;;;;;;4981249;28;19944;-94
2023/03/03 02:59:24;;;;;;;;;;;;;;;;;;4981208;28;20394;-96
2023/03/03 03:01:53;;;;;;;;;;;;;;;;;;4997525;28;19921;-96
2023/03/03 03:04:23;;;;;;;;;;;;;;;;;;4997198;28;19921;-95
2023/03/03 03:06:49;;;;;;;;;;;;;;;;;;4981236;28;19921;-95
2023/03/03 03:09:15;;;;;;;;;;;;;;;;;;4997841;28;20074;-96
2023/03/03 03:11:41;;;;;;;;;;;;;;;;;;4980682;28;20003;-95
2023/03/03 03:14:07;;;;;;;;;;;;;;;;;;4980859;28;19922;-95
2023/03/03 03:16:33;;;;;;;;;;;;;;;;;;4996891;28;19928;-96
2023/03/03 03:19:02;;;;;;;;;;;;;;;;;;4981043;28;19921;-96
2023/03/03 03:21:31;;;;;;;;;;;;;;;;;;4981014;28;19928;-96
2023/03/03 03:23:59;;;;;;;;;;;;;;;;;;4997753;28;19921;-95
2023/03/03 03:26:28;;;;;;;;;;;;;;;;;;4982103;28;19922;-95
2023/03/03 03:29:12;;;;;;;;;;;;;;;;;;4982748;28;20337;-96
2023/03/03 03:31:42;;;;;;;;;;;;;;;;;;4982198;28;20286;-95
2023/03/03 03:34:08;;;;;;;;;;;;;;;;;;4982168;28;19968;-96
2023/03/03 03:36:42;;;;;;;;;;;;;;;;;;4981529;28;19922;-93
2023/03/03 03:39:11;;;;;;;;;;;;;;;;;;4981347;28;20378;-95
2023/03/03 03:41:42;;;;;;;;;;;;;;;;;;4998201;28;19972;-94
2023/03/03 03:44:14;;;;;;;;;;;;;;;;;;4998321;28;20425;-96
2023/03/03 03:46:40;;;;;;;;;;;;;;;;;;4998026;28;19921;-96
2023/03/03 03:49:06;;;;;;;;;;;;;;;;;;4981754;28;20044;-96
2023/03/03 03:51:48;;;;;;;;;;;;;;;;;;4981737;28;19926;-96
2023/03/03 03:57:03;;;;;;;;;;;;;;;;;;5010914;28;19921;-95
2023/03/03 04:11:34;;;;;;;;;;;;;;;;;;4889042;29;19928;-96
2023/03/03 04:17:28;;;;;;;;;;;;;;;;;;4929639;29;19923;-96
2023/03/03 04:40:36;;;;;;;;;;;;;;;;;;4999508;28;20298;-96
2023/03/03 04:46:37;;;;;;;;;;;;;;;;;;;;;
2023/03/03 04:49:26;;;;;;;;;;;;;;;;;;;;;
2023/03/03 04:57:31;;;;;;;;;;;;;;;;;;4970128;28;19972;-96
2023/03/03 05:00:12;;;;;;;;;;;;;;;;;;4965318;28;19976;-96
2023/03/03 05:02:48;;;;;;;;;;;;;;;;;;4967906;28;19929;-93
2023/03/03 05:05:43;;;;;;;;;;;;;;;;;;4987197;28;19929;-95
2023/03/03 05:11:15;;;;;;;;;;;;;;;;;;;;;
2023/03/03 05:13:48;;;;;;;;;;;;;;;;;;4984279;28;19932;-95
2023/03/03 05:16:42;;;;;;;;;;;;;;;;;;4970344;28;19922;-92
2023/03/03 05:19:08;;;;;;;;;;;;;;;;;;4967283;28;19933;-94
2023/03/03 05:21:33;;;;;;;;;;;;;;;;;;4963455;28;19921;-94
2023/03/03 05:24:00;;;;;;;;;;;;;;;;;;4963088;28;19928;-94
2023/03/03 05:26:26;;;;;;;;;;;;;;;;;;4963665;28;20001;-96
2023/03/03 05:28:52;;;;;;;;;;;;;;;;;;4963298;28;20366;-94
2023/03/03 05:31:18;;;;;;;;;;;;;;;;;;4962995;28;19929;-96
2023/03/03 05:33:44;;;;;;;;;;;;;;;;;;4963647;28;19933;-96
2023/03/03 05:36:10;;;;;;;;;;;;;;;;;;4963877;28;19925;-94
2023/03/03 05:38:36;;;;;;;;;;;;;;;;;;4963295;28;20885;-95
2023/03/03 05:41:02;;;;;;;;;;;;;;;;;;4963752;28;19926;-95
2023/03/03 05:43:31;;;;;;;;;;;;;;;;;;4963406;28;20263;-96
2023/03/03 05:45:59;;;;;;;;;;;;;;;;;;4963569;28;19922;-96
2023/03/03 05:48:28;;;;;;;;;;;;;;;;;;4963476;28;19965;-95
2023/03/03 05:50:54;;;;;;;;;;;;;;;;;;4962921;28;20334;-93
2023/03/03 05:53:29;;;;;;;;;;;;;;;;;;4964146;28;19985;-96
2023/03/03 05:55:55;;;;;;;;;;;;;;;;;;4974704;28;19953;-92
2023/03/03 05:58:21;;;;;;;;;;;;;;;;;;4970701;28;19922;-93
2023/03/03 06:00:47;;;;;;;;;;;;;;;;;;4963212;28;20330;-94
2023/03/03 06:03:20;;;;;;;;;;;;;;;;;;4962900;28;19929;-94
2023/03/03 06:05:46;;;;;;;;;;;;;;;;;;4962719;28;19922;-95
2023/03/03 06:08:12;;;;;;;;;;;;;;;;;;4962846;28;20301;-94
2023/03/03 06:10:38;;;;;;;;;;;;;;;;;;4979118;28;20287;-95
2023/03/03 06:13:04;;;;;;;;;;;;;;;;;;4961725;28;19945;-95
2023/03/03 06:15:30;;;;;;;;;;;;;;;;;;4962983;28;20024;-94
2023/03/03 06:18:02;;;;;;;;;;;;;;;;;;4997403;28;19922;-93
2023/03/03 06:20:28;;;;;;;;;;;;;;;;;;4962778;28;19922;-94
2023/03/03 06:22:54;;;;;;;;;;;;;;;;;;4963218;28;19922;-94
2023/03/03 06:25:20;;;;;;;;;;;;;;;;;;4962699;28;19968;-94
2023/03/03 06:27:46;;;;;;;;;;;;;;;;;;4962809;28;20012;-95
2023/03/03 06:30:13;;;;;;;;;;;;;;;;;;4962680;28;19921;-96
2023/03/03 06:32:39;;;;;;;;;;;;;;;;;;4963324;28;19945;-95
2023/03/03 06:35:05;;;;;;;;;;;;;;;;;;4962972;28;19926;-93
2023/03/03 06:37:31;;;;;;;;;;;;;;;;;;4962485;28;19922;-94
2023/03/03 06:40:06;;;;;;;;;;;;;;;;;;4962401;28;20009;-93
2023/03/03 06:42:38;;;;;;;;;;;;;;;;;;4972757;28;19926;-94
2023/03/03 06:45:04;;;;;;;;;;;;;;;;;;4964681;28;19946;-95
2023/03/03 06:47:32;;;;;;;;;;;;;;;;;;4967215;28;20008;-96
2023/03/03 06:50:01;;;;;;;;;;;;;;;;;;4967743;28;19922;-96
2023/03/03 06:52:27;;;;;;;;;;;;;;;;;;4979805;28;19932;-96
2023/03/03 06:54:53;;;;;;;;;;;;;;;;;;4963130;28;19933;-95
2023/03/03 06:57:38;;;;;;;;;;;;;;;;;;4966274;28;19921;-95
2023/03/03 07:00:11;;;;;;;;;;;;;;;;;;4979010;28;19928;-96
2023/03/03 07:02:47;;;;;;;;;;;;;;;;;;;;;
2023/03/03 07:05:14;;;;;;;;;;;;;;;;;;4980760;28;20012;-96
2023/03/03 07:07:51;;;;;;;;;;;;;;;;;;4978433;28;19929;-96
2023/03/03 07:10:20;;;;;;;;;;;;;;;;;;4962554;28;19936;-96
2023/03/03 07:12:46;;;;;;;;;;;;;;;;;;4961366;28;20058;-96
2023/03/03 07:15:16;;;;;;;;;;;;;;;;;;4977608;28;19977;-96
2023/03/03 07:17:42;;;;;;;;;;;;;;;;;;4961951;28;19945;-96
2023/03/03 07:20:08;;;;;;;;;;;;;;;;;;4961924;28;19976;-96
2023/03/03 07:22:37;;;;;;;;;;;;;;;;;;4963247;28;19930;-96
2023/03/03 07:25:28;;;;;;;;;;;;;;;;;;4979010;28;19922;-96
2023/03/03 07:28:04;;;;;;;;;;;;;;;;;;4981892;28;19972;-94
2023/03/03 07:30:30;;;;;;;;;;;;;;;;;;4967237;28;19921;-95
2023/03/03 07:32:59;;;;;;;;;;;;;;;;;;4967772;28;19984;-95
2023/03/03 07:35:28;;;;;;;;;;;;;;;;;;4975853;28;19957;-94
2023/03/03 07:37:54;;;;;;;;;;;;;;;;;;4975351;28;19922;-94
2023/03/03 07:40:22;;;;;;;;;;;;;;;;;;4977899;28;19914;-93
2023/03/03 07:42:51;;;;;;;;;;;;;;;;;;4994652;28;19934;-95
2023/03/03 08:03:25;;;;;;;;;;;;;;;;;;4973516;28;19926;-93
2023/03/03 08:05:51;;;;;;;;;;;;;;;;;;4957865;28;19929;-91
2023/03/03 08:08:17;;;;;;;;;;;;;;;;;;4940796;28;20371;-92
2023/03/03 08:10:46;;;;;;;;;;;;;;;;;;4941050;28;19926;-91
2023/03/03 08:13:12;;;;;;;;;;;;;;;;;;4941127;28;19926;-93
2023/03/03 08:15:38;;;;;;;;;;;;;;;;;;4941028;28;19949;-93
2023/03/03 08:18:04;;;;;;;;;;;;;;;;;;4940783;28;19923;-91
2023/03/03 08:20:51;;;;;;;;;;;;;;;;;;4966359;28;19922;-95
2023/03/03 08:50:10;;;;;;;;;;;;;;;;;;5008932;28;20398;-95
2023/03/03 08:52:39;;;;;;;;;;;;;;;;;;4988614;28;19977;-95
2023/03/03 08:57:57;;;;;;;;;;;;;;;;;;4971637;28;19930;-96
2023/03/03 09:14:57;;;;;;;;;;;;;;;;;;5097645;23;19926;-96
2023/03/03 09:20:44;;;;;;;;;;;;;;;;;;4951610;29;19922;-92
2023/03/03 09:23:17;;;;;;;;;;;;;;;;;;4929845;29;19931;-94
2023/03/03 09:26:05;;;;;;;;;;;;;;;;;;4941040;29;19923;-95
2023/03/03 09:28:31;;;;;;;;;;;;;;;;;;4916511;28;19922;-95
2023/03/03 09:31:18;;;;;;;;;;;;;;;;;;4967545;28;20016;-95
2023/03/03 09:33:53;;;;;;;;;;;;;;;;;;4989989;28;20075;-96
2023/03/03 09:36:25;;;;;;;;;;;;;;;;;;4968425;28;19926;-95
2023/03/03 09:38:51;;;;;;;;;;;;;;;;;;4978257;28;19922;-95
2023/03/03 09:41:17;;;;;;;;;;;;;;;;;;4982481;28;19933;-94
2023/03/03 09:43:45;;;;;;;;;;;;;;;;;;4982150;28;19921;-95
2023/03/03 09:46:14;;;;;;;;;;;;;;;;;;4982589;28;20024;-94
2023/03/03 09:48:40;;;;;;;;;;;;;;;;;;4981893;28;19922;-95
2023/03/03 09:51:07;;;;;;;;;;;;;;;;;;4998781;28;19921;-96
2023/03/03 09:53:33;;;;;;;;;;;;;;;;;;4983311;28;19926;-96
2023/03/03 09:55:59;;;;;;;;;;;;;;;;;;4983052;28;19921;-95
2023/03/03 09:58:28;;;;;;;;;;;;;;;;;;4983598;28;20328;-96
2023/03/03 10:01:12;;;;;;;;;;;;;;;;;;4990368;28;20291;-94
2023/03/03 10:03:38;;;;;;;;;;;;;;;;;;4993923;28;19910;-96
2023/03/03 10:06:04;;;;;;;;;;;;;;;;;;4968540;28;19934;-92
2023/03/03 10:08:29;;;;;;;;;;;;;;;;;;4941829;29;19922;-93
2023/03/03 10:10:58;;;;;;;;;;;;;;;;;;4943189;29;19976;-93
2023/03/03 10:13:24;;;;;;;;;;;;;;;;;;4957116;28;20014;-94
2023/03/03 10:15:50;;;;;;;;;;;;;;;;;;5225952;23;19961;-94
2023/03/03 10:18:19;;;;;;;;;;;;;;;;;;4956215;29;20308;-95
2023/03/03 10:20:46;;;;;;;;;;;;;;;;;;4940014;29;19922;-96
2023/03/03 10:36:09;;;;;;;;;;;;;;;;;;4977495;28;19989;-91
2023/03/03 10:38:35;;;;;;;;;;;;;;;;;;4950924;28;19976;-92
2023/03/03 10:41:03;;;;;;;;;;;;;;;;;;4965635;28;19922;-93
2023/03/03 10:43:28;;;;;;;;;;;;;;;;;;4960500;28;19922;-93
2023/03/03 10:45:55;;;;;;;;;;;;;;;;;;4952933;28;19929;-94
2023/03/03 10:48:23;;;;;;;;;;;;;;;;;;4964347;28;19922;-93
2023/03/03 10:50:49;;;;;;;;;;;;;;;;;;4962388;28;19922;-93
2023/03/03 10:53:22;;;;;;;;;;;;;;;;;;5307251;23;19936;-93
2023/03/03 10:55:51;;;;;;;;;;;;;;;;;;4970557;28;19971;-94
2023/03/03 10:58:19;;;;;;;;;;;;;;;;;;4962075;28;19925;-96
2023/03/03 11:00:45;;;;;;;;;;;;;;;;;;4962915;28;20007;-94
2023/03/03 11:03:19;;;;;;;;;;;;;;;;;;4967498;28;20362;-96
2023/03/03 11:05:48;;;;;;;;;;;;;;;;;;4965204;28;19928;-92
2023/03/03 11:08:14;;;;;;;;;;;;;;;;;;4962783;28;19925;-93
2023/03/03 11:10:40;;;;;;;;;;;;;;;;;;4961165;28;20069;-93
2023/03/03 11:13:09;;;;;;;;;;;;;;;;;;4960995;28;19925;-93
2023/03/03 11:15:35;;;;;;;;;;;;;;;;;;4961567;28;19977;-95
2023/03/03 11:18:02;;;;;;;;;;;;;;;;;;4961621;28;19922;-96
2023/03/03 11:20:28;;;;;;;;;;;;;;;;;;4961411;28;19941;-92
2023/03/03 11:22:54;;;;;;;;;;;;;;;;;;4960997;28;20426;-91
2023/03/03 11:25:20;;;;;;;;;;;;;;;;;;4960110;28;19964;-92
2023/03/03 11:27:45;;;;;;;;;;;;;;;;;;4960332;28;19928;-92
2023/03/03 11:30:11;;;;;;;;;;;;;;;;;;4976569;28;20000;-93
2023/03/03 11:32:37;;;;;;;;;;;;;;;;;;4960635;28;19948;-92
2023/03/03 11:35:03;;;;;;;;;;;;;;;;;;4960217;28;19922;-92
2023/03/03 11:37:29;;;;;;;;;;;;;;;;;;4960884;28;19929;-92
2023/03/03 11:39:55;;;;;;;;;;;;;;;;;;4959928;28;19922;-91
2023/03/03 11:42:21;;;;;;;;;;;;;;;;;;4960032;28;20282;-91
2023/03/03 11:44:50;;;;;;;;;;;;;;;;;;4960168;28;19926;-91
2023/03/03 11:47:17;;;;;;;;;;;;;;;;;;4959965;28;20382;-91
2023/03/03 11:49:43;;;;;;;;;;;;;;;;;;4960291;28;20397;-91
2023/03/03 11:52:08;;;;;;;;;;;;;;;;;;4960142;28;20016;-90
2023/03/03 11:54:34;;;;;;;;;;;;;;;;;;4975738;28;20064;-92
2023/03/03 11:57:00;;;;;;;;;;;;;;;;;;4959826;28;19986;-89
2023/03/03 11:59:28;;;;;;;;;;;;;;;;;;4976383;28;19922;-93
2023/03/03 12:01:54;;;;;;;;;;;;;;;;;;4960890;28;19926;-92
2023/03/03 12:04:20;;;;;;;;;;;;;;;;;;4960782;28;20334;-93
2023/03/03 12:06:46;;;;;;;;;;;;;;;;;;4959987;28;19961;-93
2023/03/03 12:09:15;;;;;;;;;;;;;;;;;;4961167;28;19922;-93
2023/03/03 12:11:41;;;;;;;;;;;;;;;;;;4961032;28;19933;-93
2023/03/03 12:14:07;;;;;;;;;;;;;;;;;;4964078;28;19932;-91
2023/03/03 12:16:33;;;;;;;;;;;;;;;;;;4979568;28;19925;-92
2023/03/03 12:19:02;;;;;;;;;;;;;;;;;;4964341;28;19922;-91
2023/03/03 12:21:32;;;;;;;;;;;;;;;;;;4964283;28;19949;-92
2023/03/03 12:23:58;;;;;;;;;;;;;;;;;;4980021;28;19976;-92
2023/03/03 12:26:24;;;;;;;;;;;;;;;;;;4963409;28;19974;-91
2023/03/03 12:28:53;;;;;;;;;;;;;;;;;;4963860;28;19928;-94
2023/03/03 12:31:19;;;;;;;;;;;;;;;;;;4964386;28;19945;-92
2023/03/03 12:33:45;;;;;;;;;;;;;;;;;;4965675;28;19976;-91
2023/03/03 12:36:11;;;;;;;;;;;;;;;;;;4965289;28;20059;-95
2023/03/03 12:38:37;;;;;;;;;;;;;;;;;;4964458;28;19933;-92
2023/03/03 12:41:03;;;;;;;;;;;;;;;;;;4964496;28;19922;-93
2023/03/03 12:43:29;;;;;;;;;;;;;;;;;;4964041;28;19929;-93
2023/03/03 12:45:58;;;;;;;;;;;;;;;;;;4964111;28;20015;-91
2023/03/03 12:48:24;;;;;;;;;;;;;;;;;;4979882;28;20443;-92
2023/03/03 12:50:54;;;;;;;;;;;;;;;;;;4979900;28;19921;-93
2023/03/03 12:53:20;;;;;;;;;;;;;;;;;;4967680;28;19933;-91
2023/03/03 12:55:49;;;;;;;;;;;;;;;;;;4964258;28;20349;-94
2023/03/03 12:58:15;;;;;;;;;;;;;;;;;;4965457;28;19941;-92
2023/03/03 13:00:41;;;;;;;;;;;;;;;;;;4964449;28;19928;-89
2023/03/03 13:03:07;;;;;;;;;;;;;;;;;;4963392;28;19925;-92
2023/03/03 13:05:33;;;;;;;;;;;;;;;;;;4962693;28;19922;-90
2023/03/03 13:07:59;;;;;;;;;;;;;;;;;;4962757;28;19922;-90
2023/03/03 13:10:24;;;;;;;;;;;;;;;;;;4962570;28;19929;-90
2023/03/03 13:12:50;;;;;;;;;;;;;;;;;;4962227;28;20310;-91
2023/03/03 13:15:19;;;;;;;;;;;;;;;;;;4962588;28;19923;-90
2023/03/03 13:17:46;;;;;;;;;;;;;;;;;;4962639;28;19929;-90
2023/03/03 13:20:12;;;;;;;;;;;;;;;;;;4962209;28;19921;-90
2023/03/03 13:22:39;;;;;;;;;;;;;;;;;;4962208;28;20288;-90
2023/03/03 13:25:05;;;;;;;;;;;;;;;;;;4978205;28;20370;-90
2023/03/03 13:27:31;;;;;;;;;;;;;;;;;;4978272;28;19922;-90
2023/03/03 13:29:57;;;;;;;;;;;;;;;;;;4962181;28;19926;-91
2023/03/03 13:32:23;;;;;;;;;;;;;;;;;;4961965;28;20017;-91
2023/03/03 13:34:49;;;;;;;;;;;;;;;;;;4978446;28;19922;-91
2023/03/03 13:37:15;;;;;;;;;;;;;;;;;;4962540;28;19968;-89
2023/03/03 13:39:41;;;;;;;;;;;;;;;;;;4962342;28;19928;-89
2023/03/03 13:42:07;;;;;;;;;;;;;;;;;;4962437;28;19922;-90
2023/03/03 13:44:33;;;;;;;;;;;;;;;;;;4978219;28;19929;-91
2023/03/03 13:46:59;;;;;;;;;;;;;;;;;;4961840;28;20032;-91
2023/03/03 13:49:25;;;;;;;;;;;;;;;;;;4962281;28;19922;-93
2023/03/03 13:51:51;;;;;;;;;;;;;;;;;;4962924;28;19926;-94
2023/03/03 13:54:18;;;;;;;;;;;;;;;;;;4963097;28;20031;-92
2023/03/03 13:56:44;;;;;;;;;;;;;;;;;;4961888;28;19922;-91
2023/03/03 13:59:09;;;;;;;;;;;;;;;;;;4979097;28;20033;-92
2023/03/03 14:01:35;;;;;;;;;;;;;;;;;;4961787;28;20004;-92
2023/03/03 14:04:01;;;;;;;;;;;;;;;;;;4962039;28;20318;-90
2023/03/03 14:06:27;;;;;;;;;;;;;;;;;;4961333;28;19926;-90
2023/03/03 14:08:53;;;;;;;;;;;;;;;;;;4961436;28;19929;-89
2023/03/03 14:11:19;;;;;;;;;;;;;;;;;;4961392;28;19968;-88
2023/03/03 14:13:45;;;;;;;;;;;;;;;;;;4961229;28;19957;-88
2023/03/03 14:16:12;;;;;;;;;;;;;;;;;;4961084;28;19975;-91
2023/03/03 14:18:38;;;;;;;;;;;;;;;;;;4961200;28;20009;-90
2023/03/03 14:21:04;;;;;;;;;;;;;;;;;;4961065;28;19975;-89
2023/03/03 14:23:29;;;;;;;;;;;;;;;;;;4960806;28;19922;-90
2023/03/03 14:25:55;;;;;;;;;;;;;;;;;;4961080;28;19922;-90
2023/03/03 14:28:21;;;;;;;;;;;;;;;;;;4960867;28;19922;-90
2023/03/03 14:30:48;;;;;;;;;;;;;;;;;;4961138;28;19949;-90
2023/03/03 14:33:14;;;;;;;;;;;;;;;;;;4961182;28;19937;-91
2023/03/03 14:35:40;;;;;;;;;;;;;;;;;;4963654;28;19921;-93
2023/03/03 14:38:15;;;;;;;;;;;;;;;;;;4967258;28;19922;-94
2023/03/03 14:40:42;;;;;;;;;;;;;;;;;;4961474;28;19928;-91
2023/03/03 14:43:08;;;;;;;;;;;;;;;;;;4977175;28;20013;-91
2023/03/03 14:45:35;;;;;;;;;;;;;;;;;;4961598;28;20359;-92
2023/03/03 14:48:01;;;;;;;;;;;;;;;;;;4961505;28;20000;-91
2023/03/03 14:50:26;;;;;;;;;;;;;;;;;;4960985;28;20013;-89
2023/03/03 14:52:52;;;;;;;;;;;;;;;;;;4963738;28;19930;-92
2023/03/03 14:55:18;;;;;;;;;;;;;;;;;;4984825;28;19930;-92
2023/03/03 14:57:47;;;;;;;;;;;;;;;;;;4969831;28;19922;-92
2023/03/03 15:00:13;;;;;;;;;;;;;;;;;;4977622;28;19957;-91
2023/03/03 15:02:39;;;;;;;;;;;;;;;;;;4999543;28;19932;-91
2023/03/03 15:05:05;;;;;;;;;;;;;;;;;;4962933;28;20497;-91
2023/03/03 15:07:34;;;;;;;;;;;;;;;;;;4977917;28;19928;-94
2023/03/03 15:10:00;;;;;;;;;;;;;;;;;;4966305;28;19976;-92
2023/03/03 15:12:27;;;;;;;;;;;;;;;;;;4960450;28;19929;-92
2023/03/03 15:14:53;;;;;;;;;;;;;;;;;;4960864;28;20004;-92
2023/03/03 15:17:19;;;;;;;;;;;;;;;;;;4978078;28;19969;-93
2023/03/03 15:19:45;;;;;;;;;;;;;;;;;;4961262;28;19922;-92
2023/03/03 15:22:11;;;;;;;;;;;;;;;;;;4961609;28;20384;-94
2023/03/03 15:24:37;;;;;;;;;;;;;;;;;;4976991;28;19980;-91
2023/03/03 15:27:03;;;;;;;;;;;;;;;;;;4959925;28;20370;-91
2023/03/03 15:29:30;;;;;;;;;;;;;;;;;;4976100;28;19921;-92
2023/03/03 15:31:56;;;;;;;;;;;;;;;;;;4975978;28;20510;-92
2023/03/03 15:34:22;;;;;;;;;;;;;;;;;;4976262;28;19933;-92
2023/03/03 15:36:48;;;;;;;;;;;;;;;;;;4960707;28;20256;-92
2023/03/03 15:39:14;;;;;;;;;;;;;;;;;;4960396;28;19925;-92
2023/03/03 15:41:40;;;;;;;;;;;;;;;;;;4973685;28;19928;-92
2023/03/03 15:44:06;;;;;;;;;;;;;;;;;;4979332;28;19922;-91
2023/03/03 15:46:33;;;;;;;;;;;;;;;;;;4978499;28;19921;-92
2023/03/03 15:48:59;;;;;;;;;;;;;;;;;;4979069;28;19921;-92
2023/03/03 15:51:25;;;;;;;;;;;;;;;;;;4995207;28;19929;-92
2023/03/03 15:53:51;;;;;;;;;;;;;;;;;;4976111;28;19976;-92
2023/03/03 15:56:17;;;;;;;;;;;;;;;;;;4979196;28;19933;-91
2023/03/03 15:58:43;;;;;;;;;;;;;;;;;;4979051;28;19921;-91
2023/03/03 16:01:09;;;;;;;;;;;;;;;;;;4995130;28;19922;-91
2023/03/03 16:03:35;;;;;;;;;;;;;;;;;;4978884;28;19926;-91
2023/03/03 16:06:01;;;;;;;;;;;;;;;;;;4978885;28;19921;-92
2023/03/03 16:08:27;;;;;;;;;;;;;;;;;;4978920;28;19925;-91
2023/03/03 16:10:53;;;;;;;;;;;;;;;;;;4978837;28;19921;-91
2023/03/03 16:13:19;;;;;;;;;;;;;;;;;;4978464;28;19925;-91
2023/03/03 16:15:45;;;;;;;;;;;;;;;;;;4980468;28;20045;-91
2023/03/03 16:18:11;;;;;;;;;;;;;;;;;;4978905;28;19922;-91
2023/03/03 16:20:37;;;;;;;;;;;;;;;;;;4995720;28;19925;-93
2023/03/03 16:23:03;;;;;;;;;;;;;;;;;;4979069;28;19928;-93
2023/03/03 16:25:29;;;;;;;;;;;;;;;;;;4979439;28;19921;-93
2023/03/03 16:27:55;;;;;;;;;;;;;;;;;;4979418;28;19921;-93
2023/03/03 16:30:24;;;;;;;;;;;;;;;;;;4979631;28;19921;-92
2023/03/03 16:32:50;;;;;;;;;;;;;;;;;;4998587;28;19935;-92
2023/03/03 16:35:16;;;;;;;;;;;;;;;;;;4980847;28;20051;-92
2023/03/03 16:37:42;;;;;;;;;;;;;;;;;;4979150;28;19961;-92
2023/03/03 16:40:08;;;;;;;;;;;;;;;;;;4995181;28;19924;-92
2023/03/03 16:42:34;;;;;;;;;;;;;;;;;;4978888;28;19921;-92
2023/03/03 16:45:00;;;;;;;;;;;;;;;;;;4978850;28;20377;-93
2023/03/03 16:47:26;;;;;;;;;;;;;;;;;;4979619;28;19921;-95
2023/03/03 16:49:52;;;;;;;;;;;;;;;;;;4979405;28;20416;-92
2023/03/03 16:52:18;;;;;;;;;;;;;;;;;;4979756;28;20014;-93
2023/03/03 16:54:44;;;;;;;;;;;;;;;;;;4997036;28;19930;-89
2023/03/03 16:57:10;;;;;;;;;;;;;;;;;;4978558;28;19929;-90
2023/03/03 16:59:36;;;;;;;;;;;;;;;;;;4981877;28;19929;-91
2023/03/03 17:02:01;;;;;;;;;;;;;;;;;;4981990;28;19932;-90
2023/03/03 17:04:27;;;;;;;;;;;;;;;;;;4998361;28;20389;-90
2023/03/03 17:06:54;;;;;;;;;;;;;;;;;;4998101;28;19948;-90
2023/03/03 17:09:21;;;;;;;;;;;;;;;;;;4998346;28;19922;-91
2023/03/03 17:11:48;;;;;;;;;;;;;;;;;;4981634;28;19930;-91
2023/03/03 17:14:13;;;;;;;;;;;;;;;;;;4981622;28;19925;-90
2023/03/03 17:16:39;;;;;;;;;;;;;;;;;;4981602;28;19921;-90
2023/03/03 17:19:05;;;;;;;;;;;;;;;;;;4981762;28;20366;-89
2023/03/03 17:21:31;;;;;;;;;;;;;;;;;;4981592;28;19972;-90
2023/03/03 17:23:57;;;;;;;;;;;;;;;;;;4998007;28;19976;-89
2023/03/03 17:26:23;;;;;;;;;;;;;;;;;;4981374;28;19922;-89
2023/03/03 17:28:49;;;;;;;;;;;;;;;;;;4981371;28;19921;-90
2023/03/03 17:31:15;;;;;;;;;;;;;;;;;;4981435;28;19970;-91
2023/03/03 17:33:41;;;;;;;;;;;;;;;;;;4997696;28;20366;-91
2023/03/03 17:36:07;;;;;;;;;;;;;;;;;;4981228;28;19925;-91
2023/03/03 17:38:33;;;;;;;;;;;;;;;;;;4981472;28;20329;-92
2023/03/03 17:40:59;;;;;;;;;;;;;;;;;;4981232;28;19925;-91
2023/03/03 17:43:25;;;;;;;;;;;;;;;;;;4980979;28;19921;-90
2023/03/03 17:45:51;;;;;;;;;;;;;;;;;;4981400;28;19922;-91
2023/03/03 17:48:17;;;;;;;;;;;;;;;;;;4997423;28;19932;-91
2023/03/03 17:50:43;;;;;;;;;;;;;;;;;;4980890;28;20354;-91
2023/03/03 17:53:09;;;;;;;;;;;;;;;;;;4997335;28;20362;-92
2023/03/03 17:55:35;;;;;;;;;;;;;;;;;;4981383;28;19929;-92
2023/03/03 17:58:01;;;;;;;;;;;;;;;;;;4980987;28;19976;-91
2023/03/03 18:00:27;;;;;;;;;;;;;;;;;;4980672;28;19923;-90
2023/03/03 18:02:53;;;;;;;;;;;;;;;;;;4980739;28;19926;-93
2023/03/03 18:05:19;;;;;;;;;;;;;;;;;;4998066;28;19922;-92
2023/03/03 18:07:45;;;;;;;;;;;;;;;;;;4981162;28;20293;-93
2023/03/03 18:10:10;;;;;;;;;;;;;;;;;;4980096;28;19921;-92
2023/03/03 18:12:36;;;;;;;;;;;;;;;;;;4980851;28;19932;-93
2023/03/03 18:15:02;;;;;;;;;;;;;;;;;;4967919;28;20303;-92
2023/03/03 18:17:28;;;;;;;;;;;;;;;;;;4961083;28;19929;-93
2023/03/03 18:19:55;;;;;;;;;;;;;;;;;;4960722;28;19929;-93
2023/03/03 18:22:21;;;;;;;;;;;;;;;;;;4964974;28;19922;-92
2023/03/03 18:24:47;;;;;;;;;;;;;;;;;;4969071;28;19926;-91
2023/03/03 18:27:13;;;;;;;;;;;;;;;;;;4967308;28;19921;-93
2023/03/03 18:29:42;;;;;;;;;;;;;;;;;;4997648;28;19921;-92
2023/03/03 18:32:08;;;;;;;;;;;;;;;;;;4980715;28;20421;-91
2023/03/03 18:34:34;;;;;;;;;;;;;;;;;;4980551;28;20009;-92
2023/03/03 18:36:59;;;;;;;;;;;;;;;;;;4996439;28;20250;-91
2023/03/03 18:39:25;;;;;;;;;;;;;;;;;;4980671;28;20282;-91
2023/03/03 18:41:51;;;;;;;;;;;;;;;;;;4980652;28;19928;-93
2023/03/03 18:44:17;;;;;;;;;;;;;;;;;;4997228;28;20436;-93
2023/03/03 18:46:46;;;;;;;;;;;;;;;;;;4980921;28;19922;-93
2023/03/03 18:49:12;;;;;;;;;;;;;;;;;;4981313;28;19921;-92
2023/03/03 18:51:38;;;;;;;;;;;;;;;;;;4980154;28;20020;-92
2023/03/03 18:54:05;;;;;;;;;;;;;;;;;;4979989;28;19951;-92
2023/03/03 18:56:31;;;;;;;;;;;;;;;;;;4980117;28;19925;-93
2023/03/03 18:58:57;;;;;;;;;;;;;;;;;;4960984;28;19933;-92
2023/03/03 19:01:23;;;;;;;;;;;;;;;;;;4977067;28;19926;-89